Time;durP1;ratioP1;P1;durP2;ratioP2;P2;SDS_P1;SDS_P2;PMS_P1;PMS_P2;Temp;Humidity;BMP_temperature;BMP_pressure;BME280_temperature;BME280_humidity;BME280_pressure;Samples;Min_cycle;Max_cycle;Signal;HPM_P1;HPM_P2
2021/12/22 00:00:22;;;;;;;8.87;6.30;;;;;;;-143.84;61.18;45235.69;5067826;28;20503;-73
2021/12/22 00:02:50;;;;;;;8.50;6.43;;;;;;;-143.84;61.38;45254.72;5067543;28;20452;-73
2021/12/22 00:05:20;;;;;;;8.93;5.83;;;;;;;-143.84;61.47;45275.66;5070299;28;20938;-73
2021/12/22 00:07:48;;;;;;;8.47;5.90;;;;;;;-143.84;61.63;45271.88;5071207;28;20459;-73
2021/12/22 00:10:15;;;;;;;9.67;5.90;;;;;;;-143.84;61.97;45249.00;5071068;28;20474;-73
2021/12/22 00:12:43;;;;;;;6.03;5.43;;;;;;;-143.84;61.88;45275.66;5071004;28;20451;-73
2021/12/22 00:15:11;;;;;;;6.77;5.70;;;;;;;-143.84;62.63;45258.53;5071838;28;20509;-74
2021/12/22 00:17:40;;;;;;;7.40;5.85;;;;;;;-143.84;62.82;45264.25;5071844;28;20477;-73
2021/12/22 00:20:09;;;;;;;16.05;7.82;;;;;;;-143.84;62.61;45254.72;5070632;28;20238;-73
2021/12/22 00:22:37;;;;;;;13.83;7.10;;;;;;;-143.84;62.38;45249.00;5070297;28;20211;-73
2021/12/22 00:25:05;;;;;;;9.47;6.60;;;;;;;-143.84;61.97;45277.56;5089683;28;20501;-73
2021/12/22 00:27:32;;;;;;;10.18;6.60;;;;;;;-143.84;61.69;45256.63;5090224;28;20456;-73
2021/12/22 00:29:59;;;;;;;11.03;6.07;;;;;;;-143.84;61.65;45266.16;5089809;28;20213;-73
2021/12/22 00:32:29;;;;;;;10.87;6.93;;;;;;;-143.84;61.53;45258.53;5090385;28;20471;-73
2021/12/22 00:34:57;;;;;;;17.23;7.67;;;;;;;-143.84;61.59;45283.28;5090305;28;20463;-73
2021/12/22 00:37:26;;;;;;;14.07;7.30;;;;;;;-143.84;61.24;45271.88;5089961;28;20922;-73
2021/12/22 00:39:55;;;;;;;12.37;6.53;;;;;;;-143.84;61.67;45313.75;5089869;28;20452;-73
2021/12/22 00:42:24;;;;;;;8.43;5.63;;;;;;;-143.84;61.18;45283.28;5090280;28;20844;-73
2021/12/22 00:44:54;;;;;;;9.50;5.90;;;;;;;-143.84;61.20;45260.44;5090353;28;20540;-73
2021/12/22 00:47:24;;;;;;;8.70;5.57;;;;;;;-143.84;60.94;45258.53;5088201;28;20452;-73
2021/12/22 00:49:52;;;;;;;10.30;6.37;;;;;;;-143.84;60.74;45254.72;5070362;28;20444;-73
2021/12/22 00:52:20;;;;;;;11.63;5.50;;;;;;;-143.84;60.50;45247.09;5087642;28;20445;-73
2021/12/22 00:54:48;;;;;;;7.87;5.33;;;;;;;-143.84;60.40;45250.91;5090097;28;20452;-73
2021/12/22 00:57:16;;;;;;;9.10;5.07;;;;;;;-143.84;60.48;45269.97;5090180;28;20448;-73
2021/12/22 00:59:44;;;;;;;7.43;5.40;;;;;;;-143.84;60.41;45249.00;5090322;28;20536;-73
2021/12/22 01:02:14;;;;;;;6.40;5.80;;;;;;;-143.84;60.24;45285.19;5089854;28;20484;-73
2021/12/22 01:04:41;;;;;;;8.47;6.47;;;;;;;-143.84;60.26;45235.69;5088962;28;20444;-73
2021/12/22 01:07:09;;;;;;;10.70;7.07;;;;;;;-143.84;60.20;45258.53;5088178;28;20510;-73
2021/12/22 01:09:38;;;;;;;12.10;6.10;;;;;;;-143.84;59.88;45266.16;5089536;28;20455;-73
2021/12/22 01:12:07;;;;;;;8.13;4.60;;;;;;;-143.84;60.04;45256.63;5089210;28;21042;-73
2021/12/22 01:14:36;;;;;;;11.00;6.10;;;;;;;-143.84;60.39;45258.53;5089005;28;20455;-73
2021/12/22 01:17:04;;;;;;;8.80;5.70;;;;;;;-143.84;60.28;45269.97;5089773;28;20475;-72
2021/12/22 01:19:40;;;;;;;4.67;4.30;;;;;;;-143.84;60.13;45289.00;5072059;28;20760;-72
2021/12/22 01:22:20;;;;;;;11.53;5.10;;;;;;;-143.84;60.29;45283.28;5090213;28;20576;-73
2021/12/22 01:24:59;;;;;;;10.82;7.32;;;;;;;-143.84;60.11;45268.06;5087913;28;20476;-73
2021/12/22 01:27:28;;;;;;;10.10;7.63;;;;;;;-143.84;60.21;45275.66;5088436;28;20206;-73
2021/12/22 01:29:55;;;;;;;8.80;7.00;;;;;;;-143.84;60.01;45250.91;5088868;28;20464;-73
2021/12/22 01:32:23;;;;;;;6.22;5.30;;;;;;;-143.84;59.94;45283.28;5089025;28;20444;-73
2021/12/22 01:34:50;;;;;;;10.97;5.80;;;;;;;-143.84;59.85;45266.16;5088863;28;20210;-73
2021/12/22 01:37:17;;;;;;;11.77;6.50;;;;;;;-143.84;60.18;45262.34;5089614;28;20456;-73
2021/12/22 01:39:45;;;;;;;7.50;5.70;;;;;;;-143.84;60.43;45279.47;5088859;28;20454;-73
2021/12/22 01:42:13;;;;;;;9.77;6.00;;;;;;;-143.84;60.05;45254.72;5089231;28;20303;-73
2021/12/22 01:45:00;;;;;;;8.95;6.18;;;;;;;-143.84;60.13;45250.91;5088776;28;20451;-73
2021/12/22 01:50:14;;;;;;;7.50;5.03;;;;;;;-143.84;60.58;45302.34;5089151;28;20442;-73
2021/12/22 01:52:41;;;;;;;9.13;5.23;;;;;;;-143.84;60.79;45271.88;5085822;28;20967;-73
2021/12/22 01:55:33;;;;;;;8.90;6.05;;;;;;;-143.84;61.35;45281.38;5085768;28;20451;-73
2021/12/22 01:58:04;;;;;;;11.23;6.40;;;;;;;-143.84;60.98;45252.81;5089193;28;20652;-73
2021/12/22 02:00:31;;;;;;;8.97;5.83;;;;;;;-143.84;61.32;45266.16;5088587;28;20301;-73
2021/12/22 02:02:59;;;;;;;8.50;5.83;;;;;;;-143.84;61.42;45287.09;5089057;28;20451;-73
2021/12/22 02:05:26;;;;;;;7.18;5.22;;;;;;;-143.84;61.11;45271.88;5088533;28;20443;-73
2021/12/22 02:07:57;;;;;;;7.40;5.25;;;;;;;-143.84;61.15;45247.09;5088745;28;20210;-73
2021/12/22 02:10:36;;;;;;;8.43;5.55;;;;;;;-143.84;61.20;45266.16;5088519;28;20228;-73
2021/12/22 02:13:05;;;;;;;8.50;6.23;;;;;;;-143.84;61.29;45252.81;5087614;28;20216;-73
2021/12/22 02:15:34;;;;;;;12.10;6.30;;;;;;;-143.84;61.46;45235.69;5088605;28;20455;-73
2021/12/22 02:18:04;;;;;;;6.97;5.00;;;;;;;-143.84;61.35;45268.06;5088343;28;20453;-73
2021/12/22 02:20:33;;;;;;;10.60;5.80;;;;;;;-143.84;60.94;45269.97;5087812;28;20452;-73
2021/12/22 02:23:00;;;;;;;6.85;5.78;;;;;;;-143.84;61.16;45262.34;5087923;28;20447;-73
2021/12/22 02:25:35;;;;;;;8.38;5.35;;;;;;;-143.84;61.12;45264.25;5087652;28;20202;-73
2021/12/22 02:28:05;;;;;;;7.15;5.30;;;;;;;-143.84;60.95;45269.97;5087833;28;20209;-73
2021/12/22 02:30:33;;;;;;;6.40;5.20;;;;;;;-143.84;60.89;45277.56;5087888;28;20206;-73
2021/12/22 02:35:54;;;;;;;13.10;6.53;;;;;;;-143.84;60.71;45260.44;5080888;28;20455;-73
2021/12/22 02:38:22;;;;;;;10.70;6.53;;;;;;;-143.84;60.55;45269.97;5088343;28;21131;-73
2021/12/22 02:40:52;;;;;;;10.70;5.80;;;;;;;-143.84;60.05;45266.16;5087447;28;20448;-73
2021/12/22 02:43:22;;;;;;;22.05;7.00;;;;;;;-143.84;60.19;45250.91;5087977;28;20455;-73
2021/12/22 02:45:51;;;;;;;13.87;7.13;;;;;;;-143.84;60.26;45294.72;5087894;28;20206;-73
2021/12/22 02:48:18;;;;;;;10.60;6.07;;;;;;;-143.84;60.16;45254.72;5088570;28;20862;-73
2021/12/22 02:50:47;;;;;;;6.83;6.07;;;;;;;-143.84;60.40;45258.53;5088047;28;20447;-73
2021/12/22 02:53:15;;;;;;;7.80;6.30;;;;;;;-143.84;60.36;45273.78;5087986;28;20463;-73
2021/12/22 02:55:47;;;;;;;10.03;7.00;;;;;;;-143.84;60.41;45277.56;5088259;28;20456;-73
2021/12/22 02:58:30;;;;;;;9.30;6.27;;;;;;;-143.84;60.46;45258.53;5088209;28;20456;-73
2021/12/22 03:01:08;;;;;;;6.10;4.83;;;;;;;-143.84;60.25;45277.56;5088199;28;21034;-73
2021/12/22 03:03:51;;;;;;;8.73;5.72;;;;;;;-143.84;59.82;45277.56;5070046;28;20530;-73
2021/12/22 03:06:27;;;;;;;8.03;5.37;;;;;;;-143.84;60.07;45262.34;5085882;28;20619;-73
2021/12/22 03:08:55;;;;;;;10.97;7.03;;;;;;;-143.84;60.24;45260.44;5087792;28;20459;-73
2021/12/22 03:11:22;;;;;;;5.90;4.80;;;;;;;-143.84;60.17;45254.72;5088746;28;20444;-73
2021/12/22 03:13:50;;;;;;;7.00;5.17;;;;;;;-143.84;59.89;45283.28;5087391;28;20448;-73
2021/12/22 03:16:19;;;;;;;6.03;5.13;;;;;;;-143.84;59.95;45277.56;5087834;28;20447;-73
2021/12/22 03:18:46;;;;;;;5.57;5.07;;;;;;;-143.84;60.05;45264.25;5086994;28;20486;-73
2021/12/22 03:21:20;;;;;;;5.95;5.00;;;;;;;-143.84;60.18;45237.59;5087925;28;20233;-73
2021/12/22 03:23:51;;;;;;;8.37;5.63;;;;;;;-143.84;59.51;45262.34;5087674;28;20611;-73
2021/12/22 03:26:19;;;;;;;7.90;6.05;;;;;;;-143.84;59.45;45241.41;5087708;28;20513;-73
2021/12/22 03:28:46;;;;;;;7.00;5.00;;;;;;;-143.84;59.89;45266.16;5086755;28;20204;-73
2021/12/22 03:31:15;;;;;;;7.80;5.70;;;;;;;-143.84;59.61;45245.19;5087865;28;20463;-73
2021/12/22 03:33:43;;;;;;;5.50;4.80;;;;;;;-143.84;59.55;45262.34;5084215;28;21007;-73
2021/12/22 03:36:10;;;;;;;7.80;5.72;;;;;;;-143.84;59.03;45289.00;5070211;28;20448;-73
2021/12/22 03:38:38;;;;;;;8.90;5.27;;;;;;;-143.84;59.43;45258.53;5088170;28;20205;-73
2021/12/22 03:41:09;;;;;;;6.10;5.00;;;;;;;-143.84;59.07;45241.41;5091184;28;20459;-73
2021/12/22 03:43:37;;;;;;;6.50;5.47;;;;;;;-143.84;58.73;45277.56;5091398;28;20512;-73
2021/12/22 03:46:05;;;;;;;9.73;6.00;;;;;;;-143.84;58.62;45273.78;5091049;28;20452;-73
2021/12/22 03:48:32;;;;;;;9.00;6.40;;;;;;;-143.84;58.84;45252.81;5091057;28;20206;-73
2021/12/22 03:50:59;;;;;;;11.80;6.70;;;;;;;-143.84;58.90;45249.00;5091087;28;20456;-73
2021/12/22 03:53:27;;;;;;;6.40;5.10;;;;;;;-143.84;58.45;45247.09;5091528;28;20446;-73
2021/12/22 03:55:54;;;;;;;7.43;5.32;;;;;;;-143.84;58.35;45277.56;5091694;28;20455;-73
2021/12/22 03:58:24;;;;;;;6.10;4.57;;;;;;;-143.84;58.35;45229.97;5091110;28;20201;-73
2021/12/22 04:00:54;;;;;;;5.03;4.30;;;;;;;-143.84;58.07;45279.47;5091188;28;20448;-73
2021/12/22 04:03:24;;;;;;;6.70;5.67;;;;;;;-143.84;57.99;45277.56;5091376;28;20253;-73
2021/12/22 04:05:51;;;;;;;7.18;4.78;;;;;;;-143.84;58.26;45268.06;5088282;28;20533;-73
2021/12/22 04:08:18;;;;;;;8.73;5.80;;;;;;;-143.84;58.18;45250.91;5091159;28;20209;-73
2021/12/22 04:10:47;;;;;;;10.80;5.50;;;;;;;-143.84;57.73;45249.00;5090830;28;21115;-73
2021/12/22 04:13:15;;;;;;;7.10;4.80;;;;;;;-143.84;57.96;45283.28;5089853;28;20459;-73
2021/12/22 04:15:44;;;;;;;5.28;4.72;;;;;;;-143.84;57.68;45264.25;5090923;28;20458;-73
2021/12/22 04:18:12;;;;;;;6.23;4.40;;;;;;;-143.84;56.96;45260.44;5089277;28;20202;-73
2021/12/22 04:20:40;;;;;;;12.13;4.63;;;;;;;-143.84;57.34;45241.41;5090294;28;20448;-73
2021/12/22 04:23:07;;;;;;;7.77;5.80;;;;;;;-143.84;57.31;45241.41;5090561;28;20480;-73
2021/12/22 04:25:36;;;;;;;10.27;5.65;;;;;;;-143.84;56.93;45289.00;5090659;28;20505;-73
2021/12/22 04:28:08;;;;;;;7.80;4.87;;;;;;;-143.84;56.85;45269.97;5090539;28;20198;-73
2021/12/22 04:30:38;;;;;;;5.60;4.90;;;;;;;-143.84;56.71;45264.25;5090730;28;20509;-73
2021/12/22 04:33:06;;;;;;;4.73;4.33;;;;;;;-143.84;56.93;45283.28;5090562;28;20202;-73
2021/12/22 04:35:34;;;;;;;4.82;4.32;;;;;;;-143.84;56.51;45249.00;5091100;28;20452;-73
2021/12/22 04:38:02;;;;;;;6.00;5.20;;;;;;;-143.84;56.52;45289.00;5089323;28;20207;-73
2021/12/22 04:40:29;;;;;;;5.30;4.80;;;;;;;-143.84;56.25;45245.19;5090533;28;20463;-73
2021/12/22 04:42:57;;;;;;;5.90;4.93;;;;;;;-143.84;56.20;45287.09;5090576;28;20495;-73
2021/12/22 04:45:24;;;;;;;12.43;4.43;;;;;;;-143.84;55.52;45273.78;5090319;28;20450;-73
2021/12/22 04:47:51;;;;;;;7.83;4.77;;;;;;;-143.84;55.88;45239.50;5090542;28;20443;-73
2021/12/22 04:50:22;;;;;;;5.30;4.23;;;;;;;-143.84;55.37;45273.78;5090075;28;20480;-73
2021/12/22 04:52:55;;;;;;;7.23;4.40;;;;;;;-143.84;55.60;45269.97;5090388;28;20454;-73
2021/12/22 04:55:24;;;;;;;11.30;6.70;;;;;;;-143.84;55.26;45268.06;5089810;28;20452;-73
2021/12/22 04:57:52;;;;;;;14.17;6.77;;;;;;;-143.84;55.55;45249.00;5073068;28;20466;-73
2021/12/22 05:00:21;;;;;;;12.82;8.55;;;;;;;-143.84;55.26;45241.41;5090789;28;20448;-73
2021/12/22 05:02:48;;;;;;;10.60;7.30;;;;;;;-143.84;54.93;45243.31;5090470;28;20278;-73
2021/12/22 05:05:16;;;;;;;9.23;5.70;;;;;;;-143.84;54.82;45268.06;5090387;28;20444;-73
2021/12/22 05:07:47;;;;;;;8.27;5.53;;;;;;;-143.84;54.21;45266.16;5084639;28;20213;-73
2021/12/22 05:10:15;;;;;;;8.73;6.07;;;;;;;-143.84;53.95;45262.34;5090668;28;20210;-73
2021/12/22 05:12:42;;;;;;;7.47;5.60;;;;;;;-143.84;54.23;45252.81;5087907;28;20451;-73
2021/12/22 05:15:11;;;;;;;7.83;4.97;;;;;;;-143.84;53.67;45308.03;5089810;28;20459;-73
2021/12/22 05:18:01;;;;;;;8.32;5.20;;;;;;;-143.84;53.38;45254.72;5089978;28;20450;-73
2021/12/22 05:20:27;;;;;;;10.40;6.63;;;;;;;-143.84;53.89;45266.16;5088668;28;20199;-72
2021/12/22 05:22:55;;;;;;;7.40;5.33;;;;;;;-143.84;54.15;45269.97;5091673;28;20936;-73
2021/12/22 05:25:23;;;;;;;10.57;5.70;;;;;;;-143.84;53.92;45247.09;5092038;28;20525;-73
2021/12/22 05:27:50;;;;;;;6.90;5.23;;;;;;;-143.84;53.08;45250.91;5091337;28;20451;-73
2021/12/22 05:30:17;;;;;;;11.27;6.03;;;;;;;-143.84;53.24;45252.81;5090766;28;20526;-72
2021/12/22 05:32:44;;;;;;;10.30;6.37;;;;;;;-143.84;53.55;45277.56;5091716;28;20432;-72
2021/12/22 05:35:12;;;;;;;14.53;6.10;;;;;;;-143.84;53.58;45262.34;5091183;28;20450;-73
2021/12/22 05:37:41;;;;;;;9.57;4.93;;;;;;;-143.84;52.81;45273.78;5089952;28;20447;-73
2021/12/22 05:40:11;;;;;;;11.47;7.43;;;;;;;-143.84;52.57;45266.16;5090513;28;20503;-77
2021/12/22 05:42:39;;;;;;;24.70;6.97;;;;;;;-143.84;56.21;45252.81;5073088;28;20472;-73
2021/12/22 05:45:07;;;;;;;14.82;8.60;;;;;;;-143.84;54.66;45250.91;5072243;28;20443;-73
2021/12/22 05:47:34;;;;;;;6.30;5.70;;;;;;;-143.84;53.27;45262.34;5090904;28;20251;-72
2021/12/22 05:50:03;;;;;;;13.87;8.60;;;;;;;-143.84;52.96;45269.97;5090314;28;20424;-73
2021/12/22 05:52:30;;;;;;;15.40;9.87;;;;;;;-143.84;54.32;45283.28;5090803;28;20436;-74
2021/12/22 05:54:57;;;;;;;14.50;9.90;;;;;;;-143.84;55.57;45279.47;5090156;28;20443;-72
2021/12/22 05:57:26;;;;;;;14.20;10.37;;;;;;;-143.84;55.77;45269.97;5090180;28;20471;-72
2021/12/22 05:59:53;;;;;;;19.23;11.23;;;;;;;-143.84;56.45;45233.78;5090266;28;20452;-72
2021/12/22 06:02:20;;;;;;;20.37;11.63;;;;;;;-143.84;56.88;45250.91;5089532;28;20472;-73
2021/12/22 06:04:47;;;;;;;17.10;12.07;;;;;;;-143.84;56.54;45260.44;5090110;28;20440;-73
2021/12/22 06:07:14;;;;;;;12.73;8.97;;;;;;;-143.84;53.58;45247.09;5089635;28;20496;-73
2021/12/22 06:09:42;;;;;;;8.80;4.57;;;;;;;-143.84;49.99;45262.34;5090032;28;20440;-73
2021/12/22 06:12:09;;;;;;;4.53;4.10;;;;;;;-143.84;49.93;45264.25;5090393;28;20851;-74
2021/12/22 06:14:38;;;;;;;4.57;4.17;;;;;;;-143.84;49.16;45260.44;5090294;28;20508;-73
2021/12/22 06:17:05;;;;;;;6.70;4.90;;;;;;;-143.84;49.10;45250.91;5090068;28;20930;-74
2021/12/22 06:19:32;;;;;;;7.35;5.38;;;;;;;-143.84;49.79;45239.50;5090011;28;21220;-74
2021/12/22 06:22:00;;;;;;;6.00;4.47;;;;;;;-143.84;49.66;45229.97;5089637;28;20663;-73
2021/12/22 06:24:29;;;;;;;5.60;4.90;;;;;;;-143.84;49.29;45239.50;5089733;28;21009;-74
2021/12/22 06:26:57;;;;;;;9.53;5.53;;;;;;;-143.84;49.73;45269.97;5089355;28;20534;-73
2021/12/22 06:29:25;;;;;;;5.97;5.37;;;;;;;-143.84;50.21;45281.38;5089645;28;20514;-73
2021/12/22 06:31:54;;;;;;;8.60;6.23;;;;;;;-143.84;49.74;45329.00;5089644;28;20499;-74
2021/12/22 06:34:21;;;;;;;8.20;5.73;;;;;;;-143.84;50.18;45281.38;5089602;28;21241;-74
2021/12/22 06:36:48;;;;;;;17.53;8.13;;;;;;;-143.84;49.39;45258.53;5089323;28;20501;-74
2021/12/22 06:39:18;;;;;;;10.00;7.00;;;;;;;-143.84;49.85;45258.53;5089579;28;20445;-74
2021/12/22 06:41:46;;;;;;;10.00;6.70;;;;;;;-143.84;49.93;45250.91;5089934;28;20439;-74
2021/12/22 06:44:14;;;;;;;6.80;4.40;;;;;;;-143.84;49.27;45243.31;5071630;28;20832;-73
2021/12/22 06:46:42;;;;;;;5.13;4.63;;;;;;;-143.84;48.54;45228.06;5089654;28;20867;-74
2021/12/22 06:49:11;;;;;;;6.83;5.40;;;;;;;-143.84;48.51;45224.25;5089405;28;20975;-74
2021/12/22 06:51:38;;;;;;;8.90;5.00;;;;;;;-143.84;48.46;45247.09;5089456;28;20454;-74
2021/12/22 06:54:06;;;;;;;5.77;4.40;;;;;;;-143.84;47.44;45224.25;5089791;28;20436;-73
2021/12/22 06:56:33;;;;;;;4.70;4.30;;;;;;;-143.84;46.90;45252.81;5089303;28;20442;-74
2021/12/22 06:59:01;;;;;;;9.57;5.27;;;;;;;-143.84;47.55;45260.44;5089594;28;20443;-74
2021/12/22 07:01:32;;;;;;;6.90;4.33;;;;;;;-143.84;46.71;45247.09;5090580;28;20448;-74
2021/12/22 07:03:59;;;;;;;6.10;4.10;;;;;;;-143.84;45.61;45237.59;5090888;28;20519;-74
2021/12/22 07:06:27;;;;;;;9.50;5.40;;;;;;;-143.84;45.34;45252.81;5090170;28;20439;-74
2021/12/22 07:08:55;;;;;;;5.67;4.57;;;;;;;-143.84;44.05;45268.06;5089572;28;20432;-74
2021/12/22 07:11:22;;;;;;;9.37;4.67;;;;;;;-143.84;44.19;45243.31;5089712;28;20523;-74
2021/12/22 07:13:49;;;;;;;7.33;5.83;;;;;;;-143.84;44.33;45212.84;5091361;28;20447;-74
2021/12/22 07:16:16;;;;;;;6.13;4.90;;;;;;;-143.84;43.39;45247.09;5094210;28;20929;-74
2021/12/22 07:18:43;;;;;;;13.63;4.67;;;;;;;-143.84;42.09;45247.09;5093978;28;20921;-75
2021/12/22 07:21:11;;;;;;;6.37;4.90;;;;;;;-143.84;41.87;45218.53;5095150;28;20828;-74
2021/12/22 07:23:40;;;;;;;9.70;5.30;;;;;;;-143.84;42.08;45245.19;5091523;28;20809;-75
2021/12/22 07:26:13;;;;;;;6.50;4.90;;;;;;;-143.84;41.53;45218.53;5075040;28;20441;-74
2021/12/22 07:28:40;;;;;;;5.87;4.70;;;;;;;-143.84;40.28;45229.97;5075228;28;20478;-75
2021/12/22 07:31:08;;;;;;;5.73;4.90;;;;;;;-143.84;40.05;45224.25;5074376;28;20442;-74
2021/12/22 07:33:35;;;;;;;7.43;5.77;;;;;;;-143.84;39.70;45218.53;5086774;28;20523;-74
2021/12/22 07:36:05;;;;;;;6.93;5.47;;;;;;;-143.84;39.29;45212.84;5094955;28;20456;-75
2021/12/22 07:38:36;;;;;;;11.30;5.90;;;;;;;-143.84;38.98;45218.53;5075215;28;20442;-75
2021/12/22 07:41:07;;;;;;;25.70;7.30;;;;;;;-143.84;39.64;45203.31;5091875;28;20448;-75
2021/12/22 07:43:34;;;;;;;12.03;7.57;;;;;;;-143.84;39.18;45239.50;5091672;28;20855;-74
2021/12/22 07:46:02;;;;;;;13.97;7.07;;;;;;;-143.84;38.98;45229.97;5090548;28;20436;-75
2021/12/22 07:48:30;;;;;;;10.90;6.60;;;;;;;-143.84;37.81;45239.50;5094123;28;20451;-75
2021/12/22 07:50:57;;;;;;;9.67;6.60;;;;;;;-143.84;38.07;45209.03;5092498;28;20451;-75
2021/12/22 07:53:24;;;;;;;10.33;6.00;;;;;;;-143.84;37.56;45195.69;5093641;28;20435;-75
2021/12/22 07:55:53;;;;;;;12.10;8.10;;;;;;;-143.84;37.55;45224.25;5075903;28;20444;-75
2021/12/22 07:58:23;;;;;;;8.73;7.00;;;;;;;-143.84;37.36;45193.78;5076310;28;20933;-75
2021/12/22 08:00:52;;;;;;;5.90;5.20;;;;;;;-143.84;37.04;45186.16;5093236;28;20450;-75
2021/12/22 08:03:19;;;;;;;6.43;5.53;;;;;;;-143.84;36.57;45193.78;5093372;28;20574;-75
2021/12/22 08:05:46;;;;;;;7.17;5.43;;;;;;;-143.84;36.10;45216.63;5093637;28;20479;-74
2021/12/22 08:08:13;;;;;;;9.03;5.50;;;;;;;-143.84;36.72;45209.03;5093275;28;20459;-75
2021/12/22 08:10:41;;;;;;;8.20;5.70;;;;;;;-143.84;36.79;45191.88;5091772;28;20427;-71
2021/12/22 08:13:08;;;;;;;16.70;5.87;;;;;;;-143.84;36.29;45212.84;5091044;28;20469;-71
2021/12/22 08:15:37;;;;;;;15.40;6.77;;;;;;;-143.84;36.87;45193.78;5091452;28;20521;-71
2021/12/22 08:18:04;;;;;;;7.80;6.10;;;;;;;-143.84;36.02;45186.16;5091231;28;20955;-71
2021/12/22 08:20:31;;;;;;;8.27;5.73;;;;;;;-143.84;35.67;45243.31;5091453;28;20442;-70
2021/12/22 08:22:59;;;;;;;8.07;5.80;;;;;;;-143.84;35.99;45214.72;5091523;28;21097;-71
2021/12/22 08:25:26;;;;;;;15.07;6.93;;;;;;;-143.84;34.97;45191.88;5090938;28;20436;-72
2021/12/22 08:27:53;;;;;;;5.87;5.10;;;;;;;-143.84;34.88;45203.31;5091818;28;20512;-71
2021/12/22 08:30:21;;;;;;;5.63;4.97;;;;;;;-143.84;35.39;45216.63;5091661;28;20805;-72
2021/12/22 08:32:49;;;;;;;7.03;4.60;;;;;;;-143.84;35.30;45235.69;5091483;28;20945;-71
2021/12/22 08:35:17;;;;;;;6.20;4.03;;;;;;;-143.84;35.09;45209.03;5091555;28;20451;-72
2021/12/22 08:40:30;;;;;;;7.60;5.53;;;;;;;-143.84;34.75;45249.00;5073539;28;20800;-72
2021/12/22 08:42:57;;;;;;;13.03;5.67;;;;;;;-143.84;34.09;45199.50;5068254;28;20480;-72
2021/12/22 08:45:25;;;;;;;6.70;5.60;;;;;;;-143.84;34.45;45197.59;5071436;28;20969;-72
2021/12/22 08:47:54;;;;;;;8.00;5.70;;;;;;;-143.84;34.28;45235.69;5085302;28;20840;-72
2021/12/22 08:50:24;;;;;;;14.13;5.33;;;;;;;-143.84;33.71;45195.69;5082031;28;20449;-72
2021/12/22 08:52:51;;;;;;;9.40;6.90;;;;;;;-143.84;34.05;45197.59;5080502;28;20517;-72
2021/12/22 08:55:20;;;;;;;7.50;6.13;;;;;;;-143.84;34.71;45189.97;5075560;28;20436;-72
2021/12/22 08:57:47;;;;;;;11.10;5.70;;;;;;;-143.84;34.11;45169.03;5084721;28;20514;-72
2021/12/22 09:00:15;;;;;;;12.00;5.67;;;;;;;-143.84;33.35;45214.72;5076935;28;20444;-72
2021/12/22 09:02:44;;;;;;;8.37;5.40;;;;;;;-143.84;33.77;45197.59;5080847;28;20440;-72
2021/12/22 09:05:13;;;;;;;7.17;5.73;;;;;;;-143.84;33.47;45180.47;5077699;28;20514;-72
2021/12/22 09:07:41;;;;;;;7.23;5.50;;;;;;;-143.84;33.20;45195.69;5076360;28;20803;-72
2021/12/22 09:10:10;;;;;;;7.77;6.10;;;;;;;-143.84;32.96;45189.97;5083008;28;20448;-72
2021/12/22 09:12:37;;;;;;;10.40;6.97;;;;;;;-143.84;33.32;45195.69;5075208;28;20448;-72
2021/12/22 09:15:05;;;;;;;15.50;7.47;;;;;;;-143.84;33.41;45197.59;5078467;28;20444;-72
2021/12/22 09:17:32;;;;;;;7.90;6.60;;;;;;;-143.84;32.53;45189.97;5080155;28;20949;-72
2021/12/22 09:20:00;;;;;;;15.13;5.80;;;;;;;-143.84;32.15;45180.47;5077458;28;20453;-73
2021/12/22 09:22:28;;;;;;;9.57;7.40;;;;;;;-143.84;32.07;45209.03;5080159;28;20468;-73
2021/12/22 09:24:56;;;;;;;9.40;7.43;;;;;;;-143.84;32.55;45184.25;5079784;28;20872;-73
2021/12/22 09:27:23;;;;;;;5.73;5.10;;;;;;;-143.84;31.00;45176.66;5080131;28;20445;-72
2021/12/22 09:29:50;;;;;;;11.60;7.27;;;;;;;-143.84;31.85;45199.50;5076889;28;20877;-73
2021/12/22 09:32:18;;;;;;;8.37;5.70;;;;;;;-143.84;30.82;45191.88;5079915;28;20437;-73
2021/12/22 09:34:46;;;;;;;8.07;6.23;;;;;;;-143.84;31.34;45178.56;5078927;28;21034;-73
2021/12/22 09:37:13;;;;;;;6.60;5.13;;;;;;;-143.84;30.89;45170.94;5075438;28;20448;-72
2021/12/22 09:39:43;;;;;;;7.23;6.30;;;;;;;-143.84;31.63;45159.50;5079461;28;20433;-72
2021/12/22 09:42:11;;;;;;;7.97;6.20;;;;;;;-143.84;31.61;45201.41;5080250;28;20456;-72
2021/12/22 09:44:44;;;;;;;11.87;6.73;;;;;;;-143.84;32.31;45191.88;5079469;28;20504;-73
2021/12/22 09:47:11;;;;;;;5.97;5.33;;;;;;;-143.84;31.40;45203.31;5077812;28;20555;-73
2021/12/22 09:50:05;;;;;;;6.83;6.13;;;;;;;-143.84;32.06;45186.16;5075874;28;20456;-73
2021/12/22 09:52:32;;;;;;;14.53;6.57;;;;;;;-143.84;31.78;45167.13;5077325;28;20452;-73
2021/12/22 09:55:01;;;;;;;10.17;7.50;;;;;;;-143.84;32.55;45178.56;5078654;28;21152;-73
2021/12/22 09:57:29;;;;;;;9.30;6.40;;;;;;;-143.84;32.00;45193.78;5075870;28;20506;-72
2021/12/22 09:59:58;;;;;;;8.00;4.63;;;;;;;-143.84;31.49;45203.31;5070108;28;20449;-73
2021/12/22 10:02:29;;;;;;;6.63;5.93;;;;;;;-143.84;31.08;45209.03;5077934;28;20435;-73
2021/12/22 10:04:57;;;;;;;15.07;5.17;;;;;;;-143.84;31.78;45201.41;5084027;28;20501;-73
2021/12/22 10:07:27;;;;;;;6.23;5.63;;;;;;;-143.84;31.49;45178.56;5082241;28;20450;-73
2021/12/22 10:09:55;;;;;;;6.30;5.70;;;;;;;-143.84;31.61;45176.66;5077993;28;20480;-73
2021/12/22 10:12:26;;;;;;;13.03;5.77;;;;;;;-143.84;31.49;45186.16;5069940;28;20468;-73
2021/12/22 10:14:56;;;;;;;8.30;5.70;;;;;;;-143.84;31.03;45197.59;5077731;28;20456;-73
2021/12/22 10:17:32;;;;;;;5.83;5.00;;;;;;;-143.84;30.93;45195.69;5080043;28;20467;-73
2021/12/22 10:20:00;;;;;;;6.47;5.50;;;;;;;-143.84;30.77;45178.56;5075685;28;20449;-73
2021/12/22 10:22:33;;;;;;;5.80;5.20;;;;;;;-143.84;31.35;45199.50;5071296;28;20436;-74
2021/12/22 10:25:09;;;;;;;6.20;5.23;;;;;;;-143.84;30.59;45195.69;5063282;28;21141;-74
2021/12/22 10:27:40;;;;;;;6.03;5.43;;;;;;;-143.84;30.67;45163.31;5076429;28;20448;-74
2021/12/22 10:30:27;;;;;;;9.30;5.50;;;;;;;-143.84;30.91;45186.16;5059850;28;20445;-74
2021/12/22 10:33:10;;;;;;;6.83;5.77;;;;;;;-143.84;30.95;45184.25;5050605;28;20446;-74
2021/12/22 10:35:39;;;;;;;13.20;6.83;;;;;;;-143.84;31.42;45189.97;5048997;28;20520;-74
2021/12/22 10:38:07;;;;;;;15.73;8.20;;;;;;;-143.84;30.37;45191.88;5048994;28;20438;-74
2021/12/22 10:40:37;;;;;;;7.20;4.90;;;;;;;-143.84;29.96;45209.03;5048779;28;20461;-74
2021/12/22 10:43:09;;;;;;;9.23;5.70;;;;;;;-143.84;30.81;45205.22;5048991;28;20450;-73
2021/12/22 10:45:38;;;;;;;5.47;4.97;;;;;;;-143.84;30.77;45188.06;5049073;28;20518;-74
2021/12/22 10:50:58;;;;;;;6.93;4.83;;;;;;;-143.84;29.87;45199.50;5048874;28;20563;-73
2021/12/22 10:53:26;;;;;;;6.20;5.60;;;;;;;-143.84;30.18;45191.88;5048599;28;20472;-73
2021/12/22 10:55:56;;;;;;;11.53;5.10;;;;;;;-143.84;30.55;45203.31;5048496;28;20433;-73
2021/12/22 10:58:28;;;;;;;6.03;4.80;;;;;;;-143.84;30.48;45167.13;5048491;28;20449;-73
2021/12/22 11:01:08;;;;;;;5.40;4.47;;;;;;;-143.84;29.86;45193.78;5048896;28;20515;-73
2021/12/22 11:03:40;;;;;;;5.87;4.87;;;;;;;-143.84;30.18;45151.91;5048381;28;20564;-71
2021/12/22 11:06:15;;;;;;;7.10;3.70;;;;;;;-143.84;29.62;45180.47;5049688;28;20885;-70
2021/12/22 11:08:52;;;;;;;4.80;4.10;;;;;;;-143.84;28.99;45159.50;5068750;28;20448;-70
2021/12/22 11:11:19;;;;;;;8.17;5.17;;;;;;;-143.84;29.89;45163.31;5068547;28;20449;-70
2021/12/22 11:14:02;;;;;;;5.10;4.10;;;;;;;-143.84;28.62;45226.16;5068387;28;21076;-70
2021/12/22 11:16:29;;;;;;;4.73;4.33;;;;;;;-143.84;29.61;45191.88;5068594;28;20456;-70
2021/12/22 11:19:08;;;;;;;4.30;3.73;;;;;;;-143.84;29.16;45189.97;5068653;28;20444;-70
2021/12/22 11:21:37;;;;;;;5.53;4.10;;;;;;;-143.84;29.93;45174.75;5068236;28;20478;-71
2021/12/22 11:24:05;;;;;;;6.83;4.43;;;;;;;-143.84;30.38;45172.84;5078569;28;20545;-70
2021/12/22 11:26:32;;;;;;;7.50;5.13;;;;;;;-143.84;30.26;45205.22;5108365;28;20446;-71
2021/12/22 11:29:01;;;;;;;19.17;5.07;;;;;;;-143.84;29.94;45195.69;5108768;28;20443;-70
2021/12/22 11:31:28;;;;;;;6.60;4.00;;;;;;;-143.84;29.64;45178.56;5109181;28;20435;-70
2021/12/22 11:33:57;;;;;;;13.53;4.50;;;;;;;-143.84;29.23;45205.22;5108833;28;20466;-70